sensor_id;sensor_type;location;lat;lon;timestamp;temperature;humidity
2929;DHT22;1474;51.460;7.150;2022-08-14T00:00:38;22.10;84.20
2929;DHT22;1474;51.460;7.150;2022-08-14T00:03:04;22.00;84.50
2929;DHT22;1474;51.460;7.150;2022-08-14T00:05:30;21.90;84.70
2929;DHT22;1474;51.460;7.150;2022-08-14T00:07:55;21.90;85.00
2929;DHT22;1474;51.460;7.150;2022-08-14T00:10:22;21.90;84.70
2929;DHT22;1474;51.460;7.150;2022-08-14T00:12:50;21.80;85.10
2929;DHT22;1474;51.460;7.150;2022-08-14T00:15:32;21.70;85.10
2929;DHT22;1474;51.460;7.150;2022-08-14T00:17:59;21.70;85.50
2929;DHT22;1474;51.460;7.150;2022-08-14T00:20:27;21.60;85.50
2929;DHT22;1474;51.460;7.150;2022-08-14T00:22:53;21.60;85.70
2929;DHT22;1474;51.460;7.150;2022-08-14T00:25:19;21.60;86.20
2929;DHT22;1474;51.460;7.150;2022-08-14T00:27:45;21.50;86.60
2929;DHT22;1474;51.460;7.150;2022-08-14T00:30:12;21.50;86.90
2929;DHT22;1474;51.460;7.150;2022-08-14T00:32:38;21.40;87.20
2929;DHT22;1474;51.460;7.150;2022-08-14T00:35:05;21.40;87.70
2929;DHT22;1474;51.460;7.150;2022-08-14T00:37:31;21.30;88.00
2929;DHT22;1474;51.460;7.150;2022-08-14T00:39:58;21.30;88.30
2929;DHT22;1474;51.460;7.150;2022-08-14T00:42:24;21.30;88.70
2929;DHT22;1474;51.460;7.150;2022-08-14T00:44:49;21.20;89.00
2929;DHT22;1474;51.460;7.150;2022-08-14T00:47:17;21.20;89.40
2929;DHT22;1474;51.460;7.150;2022-08-14T00:49:44;21.10;89.50
2929;DHT22;1474;51.460;7.150;2022-08-14T00:52:14;21.10;89.80
2929;DHT22;1474;51.460;7.150;2022-08-14T00:54:40;21.10;90.10
2929;DHT22;1474;51.460;7.150;2022-08-14T00:57:06;21.00;90.20
2929;DHT22;1474;51.460;7.150;2022-08-14T00:59:32;20.90;90.20
2929;DHT22;1474;51.460;7.150;2022-08-14T01:02:00;20.80;90.30
2929;DHT22;1474;51.460;7.150;2022-08-14T01:04:27;20.90;90.70
2929;DHT22;1474;51.460;7.150;2022-08-14T01:06:53;20.80;90.90
2929;DHT22;1474;51.460;7.150;2022-08-14T01:09:19;20.70;90.90
2929;DHT22;1474;51.460;7.150;2022-08-14T01:11:49;20.70;90.90
2929;DHT22;1474;51.460;7.150;2022-08-14T01:14:16;20.70;91.30
2929;DHT22;1474;51.460;7.150;2022-08-14T01:16:42;20.60;91.50
2929;DHT22;1474;51.460;7.150;2022-08-14T01:19:08;20.60;91.80
2929;DHT22;1474;51.460;7.150;2022-08-14T01:21:52;20.60;91.60
2929;DHT22;1474;51.460;7.150;2022-08-14T01:24:19;20.60;91.50
2929;DHT22;1474;51.460;7.150;2022-08-14T01:26:46;20.50;91.60
2929;DHT22;1474;51.460;7.150;2022-08-14T01:29:11;20.50;91.70
2929;DHT22;1474;51.460;7.150;2022-08-14T01:31:39;20.50;92.20
2929;DHT22;1474;51.460;7.150;2022-08-14T01:34:10;20.50;92.30
2929;DHT22;1474;51.460;7.150;2022-08-14T01:36:37;20.40;92.60
2929;DHT22;1474;51.460;7.150;2022-08-14T01:39:11;20.40;92.60
2929;DHT22;1474;51.460;7.150;2022-08-14T01:41:37;20.40;92.80
2929;DHT22;1474;51.460;7.150;2022-08-14T01:44:12;20.40;93.10
2929;DHT22;1474;51.460;7.150;2022-08-14T01:46:41;20.40;93.30
2929;DHT22;1474;51.460;7.150;2022-08-14T01:49:10;20.30;93.40
2929;DHT22;1474;51.460;7.150;2022-08-14T01:51:37;20.30;93.50
2929;DHT22;1474;51.460;7.150;2022-08-14T01:54:10;20.30;93.70
2929;DHT22;1474;51.460;7.150;2022-08-14T01:56:36;20.30;93.90
2929;DHT22;1474;51.460;7.150;2022-08-14T01:59:08;20.20;93.90
2929;DHT22;1474;51.460;7.150;2022-08-14T02:01:34;20.20;94.10
2929;DHT22;1474;51.460;7.150;2022-08-14T02:04:01;20.20;94.20
2929;DHT22;1474;51.460;7.150;2022-08-14T02:06:28;20.20;94.30
2929;DHT22;1474;51.460;7.150;2022-08-14T02:08:54;20.20;94.50
2929;DHT22;1474;51.460;7.150;2022-08-14T02:11:21;20.20;94.80
2929;DHT22;1474;51.460;7.150;2022-08-14T02:14:04;20.20;94.90
2929;DHT22;1474;51.460;7.150;2022-08-14T02:16:32;20.10;95.10
2929;DHT22;1474;51.460;7.150;2022-08-14T02:19:02;20.10;95.30
2929;DHT22;1474;51.460;7.150;2022-08-14T02:21:30;20.00;95.40
2929;DHT22;1474;51.460;7.150;2022-08-14T02:24:00;20.00;95.80
2929;DHT22;1474;51.460;7.150;2022-08-14T02:26:34;20.00;95.90
2929;DHT22;1474;51.460;7.150;2022-08-14T02:29:03;20.00;96.10
2929;DHT22;1474;51.460;7.150;2022-08-14T02:31:32;19.90;96.30
2929;DHT22;1474;51.460;7.150;2022-08-14T02:34:01;19.90;96.40
2929;DHT22;1474;51.460;7.150;2022-08-14T02:36:27;19.80;96.20
2929;DHT22;1474;51.460;7.150;2022-08-14T02:38:53;19.80;96.30
2929;DHT22;1474;51.460;7.150;2022-08-14T02:41:18;19.70;96.60
2929;DHT22;1474;51.460;7.150;2022-08-14T02:43:44;19.70;96.80
2929;DHT22;1474;51.460;7.150;2022-08-14T02:46:11;19.70;97.10
2929;DHT22;1474;51.460;7.150;2022-08-14T02:48:41;19.70;97.30
2929;DHT22;1474;51.460;7.150;2022-08-14T02:51:12;19.60;97.40
2929;DHT22;1474;51.460;7.150;2022-08-14T02:53:41;19.60;97.50
2929;DHT22;1474;51.460;7.150;2022-08-14T02:56:08;19.60;97.50
2929;DHT22;1474;51.460;7.150;2022-08-14T02:58:37;19.60;97.70
2929;DHT22;1474;51.460;7.150;2022-08-14T03:01:05;19.60;98.00
2929;DHT22;1474;51.460;7.150;2022-08-14T03:03:32;19.50;98.10
2929;DHT22;1474;51.460;7.150;2022-08-14T03:05:58;19.50;98.20
2929;DHT22;1474;51.460;7.150;2022-08-14T03:08:24;19.50;98.30
2929;DHT22;1474;51.460;7.150;2022-08-14T03:10:57;19.50;98.30
2929;DHT22;1474;51.460;7.150;2022-08-14T03:13:24;19.50;98.60
2929;DHT22;1474;51.460;7.150;2022-08-14T03:15:50;19.40;98.90
2929;DHT22;1474;51.460;7.150;2022-08-14T03:18:18;19.40;99.00
2929;DHT22;1474;51.460;7.150;2022-08-14T03:20:46;19.40;99.10
2929;DHT22;1474;51.460;7.150;2022-08-14T03:23:12;19.30;99.30
2929;DHT22;1474;51.460;7.150;2022-08-14T03:25:38;19.30;99.30
2929;DHT22;1474;51.460;7.150;2022-08-14T03:28:06;19.30;99.40
2929;DHT22;1474;51.460;7.150;2022-08-14T03:30:33;19.20;99.50
2929;DHT22;1474;51.460;7.150;2022-08-14T03:32:59;19.20;99.60
2929;DHT22;1474;51.460;7.150;2022-08-14T03:35:25;19.20;99.90
2929;DHT22;1474;51.460;7.150;2022-08-14T03:37:51;19.10;99.90
2929;DHT22;1474;51.460;7.150;2022-08-14T03:40:21;19.10;99.90
2929;DHT22;1474;51.460;7.150;2022-08-14T03:42:47;19.10;99.90
2929;DHT22;1474;51.460;7.150;2022-08-14T03:45:13;19.20;99.90
2929;DHT22;1474;51.460;7.150;2022-08-14T03:47:40;19.10;99.90
2929;DHT22;1474;51.460;7.150;2022-08-14T03:50:07;19.10;99.90
2929;DHT22;1474;51.460;7.150;2022-08-14T03:52:38;19.10;99.90
2929;DHT22;1474;51.460;7.150;2022-08-14T03:55:09;19.10;99.90
2929;DHT22;1474;51.460;7.150;2022-08-14T03:57:37;19.10;99.90
2929;DHT22;1474;51.460;7.150;2022-08-14T04:00:07;19.10;99.90
2929;DHT22;1474;51.460;7.150;2022-08-14T04:02:33;19.00;99.90
2929;DHT22;1474;51.460;7.150;2022-08-14T04:05:00;19.00;99.90
2929;DHT22;1474;51.460;7.150;2022-08-14T04:07:26;19.00;99.90
2929;DHT22;1474;51.460;7.150;2022-08-14T04:09:52;19.00;99.90
2929;DHT22;1474;51.460;7.150;2022-08-14T04:12:18;19.00;99.90
2929;DHT22;1474;51.460;7.150;2022-08-14T04:14:44;18.90;99.90
2929;DHT22;1474;51.460;7.150;2022-08-14T04:17:10;18.90;99.90
2929;DHT22;1474;51.460;7.150;2022-08-14T04:19:38;18.90;99.90
2929;DHT22;1474;51.460;7.150;2022-08-14T04:22:04;18.90;99.90
2929;DHT22;1474;51.460;7.150;2022-08-14T04:24:31;18.80;99.90
2929;DHT22;1474;51.460;7.150;2022-08-14T04:26:57;18.80;99.90
2929;DHT22;1474;51.460;7.150;2022-08-14T04:29:23;18.80;99.90
2929;DHT22;1474;51.460;7.150;2022-08-14T04:31:48;18.80;99.90
2929;DHT22;1474;51.460;7.150;2022-08-14T04:34:15;18.80;99.90
2929;DHT22;1474;51.460;7.150;2022-08-14T04:36:41;18.80;99.90
2929;DHT22;1474;51.460;7.150;2022-08-14T04:39:26;18.70;99.90
2929;DHT22;1474;51.460;7.150;2022-08-14T04:42:10;18.70;99.90
2929;DHT22;1474;51.460;7.150;2022-08-14T04:44:54;18.70;99.90
2929;DHT22;1474;51.460;7.150;2022-08-14T04:47:20;18.70;99.90
2929;DHT22;1474;51.460;7.150;2022-08-14T04:50:04;18.70;99.90
2929;DHT22;1474;51.460;7.150;2022-08-14T04:52:30;18.70;99.90
2929;DHT22;1474;51.460;7.150;2022-08-14T04:54:56;18.80;99.90
2929;DHT22;1474;51.460;7.150;2022-08-14T04:57:22;18.80;99.90
2929;DHT22;1474;51.460;7.150;2022-08-14T04:59:49;18.80;99.90
2929;DHT22;1474;51.460;7.150;2022-08-14T05:02:17;18.80;99.90
2929;DHT22;1474;51.460;7.150;2022-08-14T05:04:43;18.80;99.90
2929;DHT22;1474;51.460;7.150;2022-08-14T05:07:08;18.80;99.90
2929;DHT22;1474;51.460;7.150;2022-08-14T05:09:34;18.80;99.90
2929;DHT22;1474;51.460;7.150;2022-08-14T05:11:59;18.80;99.90
2929;DHT22;1474;51.460;7.150;2022-08-14T05:14:25;18.80;99.90
2929;DHT22;1474;51.460;7.150;2022-08-14T05:16:53;18.80;99.90
2929;DHT22;1474;51.460;7.150;2022-08-14T05:19:22;18.80;99.90
2929;DHT22;1474;51.460;7.150;2022-08-14T05:21:51;18.90;99.90
2929;DHT22;1474;51.460;7.150;2022-08-14T05:24:20;18.90;99.90
2929;DHT22;1474;51.460;7.150;2022-08-14T05:26:46;19.00;99.90
2929;DHT22;1474;51.460;7.150;2022-08-14T05:29:12;19.00;99.90
2929;DHT22;1474;51.460;7.150;2022-08-14T05:31:37;19.10;99.90
2929;DHT22;1474;51.460;7.150;2022-08-14T05:34:07;19.10;99.90
2929;DHT22;1474;51.460;7.150;2022-08-14T05:36:34;19.20;99.90
2929;DHT22;1474;51.460;7.150;2022-08-14T05:39:00;19.20;99.90
2929;DHT22;1474;51.460;7.150;2022-08-14T05:41:26;19.30;99.90
2929;DHT22;1474;51.460;7.150;2022-08-14T05:43:51;19.50;99.90
2929;DHT22;1474;51.460;7.150;2022-08-14T05:46:18;19.50;99.90
2929;DHT22;1474;51.460;7.150;2022-08-14T05:48:54;19.60;99.90
2929;DHT22;1474;51.460;7.150;2022-08-14T05:51:21;19.70;99.90
2929;DHT22;1474;51.460;7.150;2022-08-14T05:53:48;19.80;99.90
2929;DHT22;1474;51.460;7.150;2022-08-14T05:56:14;19.80;99.90
2929;DHT22;1474;51.460;7.150;2022-08-14T05:58:40;19.80;99.90
2929;DHT22;1474;51.460;7.150;2022-08-14T06:01:05;19.90;99.90
2929;DHT22;1474;51.460;7.150;2022-08-14T06:03:31;20.00;99.90
2929;DHT22;1474;51.460;7.150;2022-08-14T06:05:57;20.10;99.90
2929;DHT22;1474;51.460;7.150;2022-08-14T06:08:31;20.20;99.90
2929;DHT22;1474;51.460;7.150;2022-08-14T06:11:00;20.30;99.90
2929;DHT22;1474;51.460;7.150;2022-08-14T06:13:39;20.40;99.90
2929;DHT22;1474;51.460;7.150;2022-08-14T06:16:05;20.50;99.90
2929;DHT22;1474;51.460;7.150;2022-08-14T06:18:38;20.60;99.90
2929;DHT22;1474;51.460;7.150;2022-08-14T06:21:04;20.70;99.90
2929;DHT22;1474;51.460;7.150;2022-08-14T06:23:30;20.80;99.90
2929;DHT22;1474;51.460;7.150;2022-08-14T06:25:56;21.00;99.90
2929;DHT22;1474;51.460;7.150;2022-08-14T06:28:23;21.00;99.90
2929;DHT22;1474;51.460;7.150;2022-08-14T06:30:50;21.10;99.90
2929;DHT22;1474;51.460;7.150;2022-08-14T06:33:17;21.20;99.90
2929;DHT22;1474;51.460;7.150;2022-08-14T06:35:43;21.30;99.90
2929;DHT22;1474;51.460;7.150;2022-08-14T06:38:14;21.40;99.90
2929;DHT22;1474;51.460;7.150;2022-08-14T06:40:41;21.50;99.90
2929;DHT22;1474;51.460;7.150;2022-08-14T06:43:08;21.60;99.90
2929;DHT22;1474;51.460;7.150;2022-08-14T06:45:37;21.70;99.90
2929;DHT22;1474;51.460;7.150;2022-08-14T06:48:03;21.80;99.90
2929;DHT22;1474;51.460;7.150;2022-08-14T06:50:30;21.90;99.90
2929;DHT22;1474;51.460;7.150;2022-08-14T06:52:59;22.00;99.90
2929;DHT22;1474;51.460;7.150;2022-08-14T06:55:25;22.10;99.90
2929;DHT22;1474;51.460;7.150;2022-08-14T06:57:51;22.20;99.90
2929;DHT22;1474;51.460;7.150;2022-08-14T07:00:17;22.20;99.90
2929;DHT22;1474;51.460;7.150;2022-08-14T07:02:43;22.30;99.90
2929;DHT22;1474;51.460;7.150;2022-08-14T07:05:28;22.40;99.90
2929;DHT22;1474;51.460;7.150;2022-08-14T07:08:17;22.60;99.90
2929;DHT22;1474;51.460;7.150;2022-08-14T07:10:49;22.70;99.90
2929;DHT22;1474;51.460;7.150;2022-08-14T07:13:16;22.80;99.60
2929;DHT22;1474;51.460;7.150;2022-08-14T07:15:50;22.80;99.10
2929;DHT22;1474;51.460;7.150;2022-08-14T07:20:47;23.00;98.80
2929;DHT22;1474;51.460;7.150;2022-08-14T07:23:12;23.00;98.70
2929;DHT22;1474;51.460;7.150;2022-08-14T07:25:41;23.10;99.20
2929;DHT22;1474;51.460;7.150;2022-08-14T07:30:34;23.20;98.50
2929;DHT22;1474;51.460;7.150;2022-08-14T07:33:00;23.30;98.60
2929;DHT22;1474;51.460;7.150;2022-08-14T07:35:26;23.30;98.70
2929;DHT22;1474;51.460;7.150;2022-08-14T07:37:52;23.40;98.90
2929;DHT22;1474;51.460;7.150;2022-08-14T07:40:17;23.50;97.90
2929;DHT22;1474;51.460;7.150;2022-08-14T07:42:43;23.60;97.90
2929;DHT22;1474;51.460;7.150;2022-08-14T07:45:09;23.80;97.30
2929;DHT22;1474;51.460;7.150;2022-08-14T07:47:41;23.80;97.40
2929;DHT22;1474;51.460;7.150;2022-08-14T07:50:13;23.90;97.90
2929;DHT22;1474;51.460;7.150;2022-08-14T07:52:40;24.00;98.10
2929;DHT22;1474;51.460;7.150;2022-08-14T07:55:07;24.10;97.80
2929;DHT22;1474;51.460;7.150;2022-08-14T07:57:33;24.20;96.90
2929;DHT22;1474;51.460;7.150;2022-08-14T08:00:00;24.30;97.30
2929;DHT22;1474;51.460;7.150;2022-08-14T08:02:29;24.50;96.50
2929;DHT22;1474;51.460;7.150;2022-08-14T08:04:56;24.50;96.90
2929;DHT22;1474;51.460;7.150;2022-08-14T08:07:25;24.60;97.50
2929;DHT22;1474;51.460;7.150;2022-08-14T08:09:55;24.60;96.50
2929;DHT22;1474;51.460;7.150;2022-08-14T08:12:23;24.80;96.60
2929;DHT22;1474;51.460;7.150;2022-08-14T08:14:51;24.90;95.60
2929;DHT22;1474;51.460;7.150;2022-08-14T08:17:17;25.00;96.00
2929;DHT22;1474;51.460;7.150;2022-08-14T08:19:45;25.10;95.30
2929;DHT22;1474;51.460;7.150;2022-08-14T08:22:14;25.10;94.60
2929;DHT22;1474;51.460;7.150;2022-08-14T08:24:40;25.10;95.30
2929;DHT22;1474;51.460;7.150;2022-08-14T08:27:16;25.20;95.00
2929;DHT22;1474;51.460;7.150;2022-08-14T08:29:42;25.30;94.80
2929;DHT22;1474;51.460;7.150;2022-08-14T08:32:08;25.30;94.80
2929;DHT22;1474;51.460;7.150;2022-08-14T08:34:44;25.30;94.40
2929;DHT22;1474;51.460;7.150;2022-08-14T08:37:11;25.40;95.00
2929;DHT22;1474;51.460;7.150;2022-08-14T08:39:45;25.40;94.60
2929;DHT22;1474;51.460;7.150;2022-08-14T08:42:11;25.50;94.70
2929;DHT22;1474;51.460;7.150;2022-08-14T08:44:37;25.60;95.40
2929;DHT22;1474;51.460;7.150;2022-08-14T08:47:03;25.80;93.70
2929;DHT22;1474;51.460;7.150;2022-08-14T08:49:41;25.90;94.10
2929;DHT22;1474;51.460;7.150;2022-08-14T08:52:07;26.10;93.50
2929;DHT22;1474;51.460;7.150;2022-08-14T08:54:33;26.20;95.00
2929;DHT22;1474;51.460;7.150;2022-08-14T08:56:59;26.30;93.00
2929;DHT22;1474;51.460;7.150;2022-08-14T08:59:30;26.40;92.50
2929;DHT22;1474;51.460;7.150;2022-08-14T09:02:02;26.30;93.70
2929;DHT22;1474;51.460;7.150;2022-08-14T09:04:36;26.40;92.60
2929;DHT22;1474;51.460;7.150;2022-08-14T09:07:03;26.40;92.70
2929;DHT22;1474;51.460;7.150;2022-08-14T09:09:31;26.50;92.70
2929;DHT22;1474;51.460;7.150;2022-08-14T09:11:59;26.60;92.20
2929;DHT22;1474;51.460;7.150;2022-08-14T09:14:27;26.60;92.00
2929;DHT22;1474;51.460;7.150;2022-08-14T09:16:55;26.60;91.60
2929;DHT22;1474;51.460;7.150;2022-08-14T09:19:22;26.70;91.50
2929;DHT22;1474;51.460;7.150;2022-08-14T09:21:48;26.90;93.00
2929;DHT22;1474;51.460;7.150;2022-08-14T09:24:14;27.20;91.00
2929;DHT22;1474;51.460;7.150;2022-08-14T09:26:42;27.20;92.40
2929;DHT22;1474;51.460;7.150;2022-08-14T09:29:08;27.40;91.30
2929;DHT22;1474;51.460;7.150;2022-08-14T09:31:37;27.50;90.60
2929;DHT22;1474;51.460;7.150;2022-08-14T09:37:43;27.80;90.40
2929;DHT22;1474;51.460;7.150;2022-08-14T09:45:55;28.10;86.20
2929;DHT22;1474;51.460;7.150;2022-08-14T09:48:24;28.20;85.50
2929;DHT22;1474;51.460;7.150;2022-08-14T09:50:52;28.20;84.00
2929;DHT22;1474;51.460;7.150;2022-08-14T09:53:40;28.40;85.20
2929;DHT22;1474;51.460;7.150;2022-08-14T09:56:09;28.60;87.90
2929;DHT22;1474;51.460;7.150;2022-08-14T09:58:40;29.00;85.90
2929;DHT22;1474;51.460;7.150;2022-08-14T10:01:09;29.20;83.90
2929;DHT22;1474;51.460;7.150;2022-08-14T10:03:45;29.20;83.20
2929;DHT22;1474;51.460;7.150;2022-08-14T10:06:13;29.40;82.70
2929;DHT22;1474;51.460;7.150;2022-08-14T10:08:48;29.50;82.80
2929;DHT22;1474;51.460;7.150;2022-08-14T10:11:22;29.80;82.00
2929;DHT22;1474;51.460;7.150;2022-08-14T10:13:51;29.70;81.60
2929;DHT22;1474;51.460;7.150;2022-08-14T10:16:28;29.90;83.30
2929;DHT22;1474;51.460;7.150;2022-08-14T10:19:09;30.10;81.70
2929;DHT22;1474;51.460;7.150;2022-08-14T10:21:38;30.30;82.60
2929;DHT22;1474;51.460;7.150;2022-08-14T10:24:05;30.60;79.70
2929;DHT22;1474;51.460;7.150;2022-08-14T10:26:33;30.70;80.20
2929;DHT22;1474;51.460;7.150;2022-08-14T10:29:07;30.90;81.50
2929;DHT22;1474;51.460;7.150;2022-08-14T10:31:36;31.00;79.80
2929;DHT22;1474;51.460;7.150;2022-08-14T10:34:09;31.20;79.00
2929;DHT22;1474;51.460;7.150;2022-08-14T10:36:41;31.10;77.00
2929;DHT22;1474;51.460;7.150;2022-08-14T10:39:20;30.60;78.20
2929;DHT22;1474;51.460;7.150;2022-08-14T10:41:46;30.20;79.40
2929;DHT22;1474;51.460;7.150;2022-08-14T10:44:15;30.10;79.10
2929;DHT22;1474;51.460;7.150;2022-08-14T10:49:24;30.60;81.20
2929;DHT22;1474;51.460;7.150;2022-08-14T10:59:45;31.10;79.90
2929;DHT22;1474;51.460;7.150;2022-08-14T11:02:30;31.20;77.20
2929;DHT22;1474;51.460;7.150;2022-08-14T11:07:27;31.00;79.10
2929;DHT22;1474;51.460;7.150;2022-08-14T11:09:58;31.10;76.40
2929;DHT22;1474;51.460;7.150;2022-08-14T11:12:25;31.30;77.60
2929;DHT22;1474;51.460;7.150;2022-08-14T11:14:56;31.70;78.20
2929;DHT22;1474;51.460;7.150;2022-08-14T11:17:28;31.90;76.20
2929;DHT22;1474;51.460;7.150;2022-08-14T11:19:57;31.80;75.30
2929;DHT22;1474;51.460;7.150;2022-08-14T11:22:28;31.80;76.50
2929;DHT22;1474;51.460;7.150;2022-08-14T11:25:01;31.60;77.10
2929;DHT22;1474;51.460;7.150;2022-08-14T11:27:28;31.60;75.90
2929;DHT22;1474;51.460;7.150;2022-08-14T11:29:59;31.40;74.90
2929;DHT22;1474;51.460;7.150;2022-08-14T11:32:26;31.50;75.20
2929;DHT22;1474;51.460;7.150;2022-08-14T11:34:53;31.60;75.00
2929;DHT22;1474;51.460;7.150;2022-08-14T11:37:19;31.60;76.50
2929;DHT22;1474;51.460;7.150;2022-08-14T11:39:45;31.70;75.30
2929;DHT22;1474;51.460;7.150;2022-08-14T11:42:24;31.70;74.80
2929;DHT22;1474;51.460;7.150;2022-08-14T11:44:57;31.90;75.50
2929;DHT22;1474;51.460;7.150;2022-08-14T11:47:23;32.00;76.00
2929;DHT22;1474;51.460;7.150;2022-08-14T11:49:49;32.10;75.30
2929;DHT22;1474;51.460;7.150;2022-08-14T11:52:16;32.10;73.90
2929;DHT22;1474;51.460;7.150;2022-08-14T11:54:44;31.90;73.60
2929;DHT22;1474;51.460;7.150;2022-08-14T11:57:20;31.70;74.60
2929;DHT22;1474;51.460;7.150;2022-08-14T11:59:46;31.80;74.50
2929;DHT22;1474;51.460;7.150;2022-08-14T12:02:14;31.90;77.00
2929;DHT22;1474;51.460;7.150;2022-08-14T12:04:51;31.90;75.00
2929;DHT22;1474;51.460;7.150;2022-08-14T12:07:18;32.00;74.70
2929;DHT22;1474;51.460;7.150;2022-08-14T12:09:45;31.90;74.00
2929;DHT22;1474;51.460;7.150;2022-08-14T12:12:16;32.00;73.60
2929;DHT22;1474;51.460;7.150;2022-08-14T12:14:52;32.10;74.10
2929;DHT22;1474;51.460;7.150;2022-08-14T12:17:22;32.00;74.00
2929;DHT22;1474;51.460;7.150;2022-08-14T12:19:56;32.20;74.10
2929;DHT22;1474;51.460;7.150;2022-08-14T12:22:43;32.40;74.20
2929;DHT22;1474;51.460;7.150;2022-08-14T12:25:18;32.40;71.60
2929;DHT22;1474;51.460;7.150;2022-08-14T12:27:46;32.30;73.60
2929;DHT22;1474;51.460;7.150;2022-08-14T12:30:28;32.30;73.60
2929;DHT22;1474;51.460;7.150;2022-08-14T12:32:55;32.30;74.00
2929;DHT22;1474;51.460;7.150;2022-08-14T12:35:21;32.50;71.90
2929;DHT22;1474;51.460;7.150;2022-08-14T12:37:51;32.50;74.10
2929;DHT22;1474;51.460;7.150;2022-08-14T12:40:18;32.40;71.30
2929;DHT22;1474;51.460;7.150;2022-08-14T12:42:49;32.60;72.50
2929;DHT22;1474;51.460;7.150;2022-08-14T12:45:16;32.60;73.80
2929;DHT22;1474;51.460;7.150;2022-08-14T12:47:42;32.40;73.20
2929;DHT22;1474;51.460;7.150;2022-08-14T12:50:11;32.10;73.40
2929;DHT22;1474;51.460;7.150;2022-08-14T12:52:42;32.00;73.00
2929;DHT22;1474;51.460;7.150;2022-08-14T12:55:13;32.30;72.60
2929;DHT22;1474;51.460;7.150;2022-08-14T12:57:43;32.50;70.40
2929;DHT22;1474;51.460;7.150;2022-08-14T13:00:12;32.40;70.00
2929;DHT22;1474;51.460;7.150;2022-08-14T13:02:43;32.60;71.80
2929;DHT22;1474;51.460;7.150;2022-08-14T13:05:10;32.90;71.50
2929;DHT22;1474;51.460;7.150;2022-08-14T13:07:40;32.50;73.20
2929;DHT22;1474;51.460;7.150;2022-08-14T13:10:10;32.50;71.50
2929;DHT22;1474;51.460;7.150;2022-08-14T13:12:39;32.60;72.10
2929;DHT22;1474;51.460;7.150;2022-08-14T13:15:15;32.80;73.10
2929;DHT22;1474;51.460;7.150;2022-08-14T13:17:47;32.70;70.80
2929;DHT22;1474;51.460;7.150;2022-08-14T13:20:15;32.40;70.70
2929;DHT22;1474;51.460;7.150;2022-08-14T13:22:42;32.50;72.90
2929;DHT22;1474;51.460;7.150;2022-08-14T13:25:12;32.50;70.40
2929;DHT22;1474;51.460;7.150;2022-08-14T13:27:38;32.60;71.30
2929;DHT22;1474;51.460;7.150;2022-08-14T13:30:08;32.60;70.20
2929;DHT22;1474;51.460;7.150;2022-08-14T13:32:36;32.80;69.90
2929;DHT22;1474;51.460;7.150;2022-08-14T13:35:05;33.10;70.60
2929;DHT22;1474;51.460;7.150;2022-08-14T13:37:31;33.20;71.20
2929;DHT22;1474;51.460;7.150;2022-08-14T13:39:57;33.20;70.10
2929;DHT22;1474;51.460;7.150;2022-08-14T13:42:24;33.00;70.00
2929;DHT22;1474;51.460;7.150;2022-08-14T13:44:53;32.60;71.20
2929;DHT22;1474;51.460;7.150;2022-08-14T13:47:20;32.30;71.70
2929;DHT22;1474;51.460;7.150;2022-08-14T13:49:47;32.20;71.80
2929;DHT22;1474;51.460;7.150;2022-08-14T13:52:17;32.20;70.80
2929;DHT22;1474;51.460;7.150;2022-08-14T13:54:49;31.90;71.20
2929;DHT22;1474;51.460;7.150;2022-08-14T13:57:18;31.70;70.60
2929;DHT22;1474;51.460;7.150;2022-08-14T13:59:46;31.80;72.60
2929;DHT22;1474;51.460;7.150;2022-08-14T14:02:13;31.80;70.40
2929;DHT22;1474;51.460;7.150;2022-08-14T14:04:42;31.80;71.40
2929;DHT22;1474;51.460;7.150;2022-08-14T14:07:10;32.10;72.10
2929;DHT22;1474;51.460;7.150;2022-08-14T14:09:40;32.30;69.90
2929;DHT22;1474;51.460;7.150;2022-08-14T14:12:06;32.20;69.80
2929;DHT22;1474;51.460;7.150;2022-08-14T14:14:35;32.10;70.20
2929;DHT22;1474;51.460;7.150;2022-08-14T14:17:03;31.90;70.40
2929;DHT22;1474;51.460;7.150;2022-08-14T14:19:31;32.10;70.90
2929;DHT22;1474;51.460;7.150;2022-08-14T14:22:03;32.20;70.50
2929;DHT22;1474;51.460;7.150;2022-08-14T14:24:32;32.30;69.10
2929;DHT22;1474;51.460;7.150;2022-08-14T14:27:03;32.60;70.30
2929;DHT22;1474;51.460;7.150;2022-08-14T14:29:32;32.80;69.20
2929;DHT22;1474;51.460;7.150;2022-08-14T14:32:00;32.80;67.90
2929;DHT22;1474;51.460;7.150;2022-08-14T14:34:28;32.50;69.40
2929;DHT22;1474;51.460;7.150;2022-08-14T14:36:55;32.10;68.20
2929;DHT22;1474;51.460;7.150;2022-08-14T14:39:23;32.00;68.50
2929;DHT22;1474;51.460;7.150;2022-08-14T14:41:52;32.00;68.50
2929;DHT22;1474;51.460;7.150;2022-08-14T14:44:25;31.90;68.40
2929;DHT22;1474;51.460;7.150;2022-08-14T14:46:53;32.10;69.40
2929;DHT22;1474;51.460;7.150;2022-08-14T14:49:20;32.30;69.10
2929;DHT22;1474;51.460;7.150;2022-08-14T14:51:48;32.60;68.70
2929;DHT22;1474;51.460;7.150;2022-08-14T14:54:16;32.80;68.60
2929;DHT22;1474;51.460;7.150;2022-08-14T14:56:42;33.10;68.70
2929;DHT22;1474;51.460;7.150;2022-08-14T14:59:11;33.30;68.70
2929;DHT22;1474;51.460;7.150;2022-08-14T15:01:38;33.30;66.80
2929;DHT22;1474;51.460;7.150;2022-08-14T15:04:05;33.30;67.90
2929;DHT22;1474;51.460;7.150;2022-08-14T15:06:32;33.30;67.40
2929;DHT22;1474;51.460;7.150;2022-08-14T15:08:59;33.20;68.90
2929;DHT22;1474;51.460;7.150;2022-08-14T15:11:25;33.20;70.30
2929;DHT22;1474;51.460;7.150;2022-08-14T15:13:51;33.20;68.60
2929;DHT22;1474;51.460;7.150;2022-08-14T15:16:17;33.00;68.60
2929;DHT22;1474;51.460;7.150;2022-08-14T15:18:43;32.90;67.70
2929;DHT22;1474;51.460;7.150;2022-08-14T15:21:11;32.90;71.10
2929;DHT22;1474;51.460;7.150;2022-08-14T15:23:36;32.90;66.50
2929;DHT22;1474;51.460;7.150;2022-08-14T15:26:03;33.00;67.80
2929;DHT22;1474;51.460;7.150;2022-08-14T15:28:30;33.20;70.30
2929;DHT22;1474;51.460;7.150;2022-08-14T15:30:57;33.40;69.30
2929;DHT22;1474;51.460;7.150;2022-08-14T15:33:23;33.50;69.20
2929;DHT22;1474;51.460;7.150;2022-08-14T15:36:07;33.70;68.10
2929;DHT22;1474;51.460;7.150;2022-08-14T15:38:34;33.90;66.90
2929;DHT22;1474;51.460;7.150;2022-08-14T15:41:00;34.00;66.60
2929;DHT22;1474;51.460;7.150;2022-08-14T15:43:29;34.00;68.00
2929;DHT22;1474;51.460;7.150;2022-08-14T15:45:59;34.00;66.50
2929;DHT22;1474;51.460;7.150;2022-08-14T15:48:25;33.70;68.90
2929;DHT22;1474;51.460;7.150;2022-08-14T15:50:52;33.30;67.60
2929;DHT22;1474;51.460;7.150;2022-08-14T15:53:18;33.10;67.50
2929;DHT22;1474;51.460;7.150;2022-08-14T15:55:47;32.70;68.20
2929;DHT22;1474;51.460;7.150;2022-08-14T15:58:13;32.50;69.80
2929;DHT22;1474;51.460;7.150;2022-08-14T16:00:38;32.30;69.60
2929;DHT22;1474;51.460;7.150;2022-08-14T16:03:23;31.90;69.40
2929;DHT22;1474;51.460;7.150;2022-08-14T16:05:48;31.70;69.60
2929;DHT22;1474;51.460;7.150;2022-08-14T16:08:14;31.80;70.00
2929;DHT22;1474;51.460;7.150;2022-08-14T16:10:41;31.70;71.30
2929;DHT22;1474;51.460;7.150;2022-08-14T16:13:07;31.80;69.80
2929;DHT22;1474;51.460;7.150;2022-08-14T16:15:33;31.80;69.60
2929;DHT22;1474;51.460;7.150;2022-08-14T16:17:59;31.90;69.80
2929;DHT22;1474;51.460;7.150;2022-08-14T16:20:28;31.80;69.80
2929;DHT22;1474;51.460;7.150;2022-08-14T16:23:01;31.70;69.80
2929;DHT22;1474;51.460;7.150;2022-08-14T16:25:30;31.70;69.90
2929;DHT22;1474;51.460;7.150;2022-08-14T16:27:57;31.80;70.40
2929;DHT22;1474;51.460;7.150;2022-08-14T16:30:24;31.70;69.70
2929;DHT22;1474;51.460;7.150;2022-08-14T16:32:51;31.70;70.10
2929;DHT22;1474;51.460;7.150;2022-08-14T16:35:16;31.80;70.70
2929;DHT22;1474;51.460;7.150;2022-08-14T16:37:43;31.70;69.10